createdAt,value
2023-02-13T00:00:04.288Z,3.90
2023-02-13T00:01:04.335Z,5.00
2023-02-13T00:02:04.321Z,5.40
2023-02-13T00:03:04.227Z,5.10
2023-02-13T00:04:04.261Z,5.00
2023-02-13T00:05:04.238Z,6.10
2023-02-13T00:06:04.248Z,5.60
2023-02-13T00:07:04.202Z,6.40
2023-02-13T00:08:04.207Z,6.60
2023-02-13T00:09:06.349Z,6.30
2023-02-13T00:10:04.146Z,6.40
2023-02-13T00:11:04.178Z,6.10
2023-02-13T00:12:04.135Z,6.70
2023-02-13T00:13:04.154Z,6.80
2023-02-13T00:14:04.114Z,6.70
2023-02-13T00:15:04.092Z,7.40
2023-02-13T00:16:04.144Z,6.70
2023-02-13T00:17:04.112Z,7.10
2023-02-13T00:18:04.049Z,7.10
2023-02-13T00:19:04.068Z,6.80
2023-02-13T00:20:04.025Z,7.00
2023-02-13T00:21:04.040Z,7.10
2023-02-13T00:22:04.032Z,6.40
2023-02-13T00:23:04.004Z,7.20
2023-02-13T00:24:03.985Z,7.20
2023-02-13T00:25:03.985Z,7.20
2023-02-13T00:26:03.995Z,7.60
2023-02-13T00:27:03.991Z,7.10
2023-02-13T00:28:03.955Z,6.80
2023-02-13T00:29:03.935Z,7.10
2023-02-13T00:30:03.934Z,7.20
2023-02-13T00:31:04.039Z,7.00
2023-02-13T00:32:04.031Z,7.40
2023-02-13T00:33:03.903Z,7.20
2023-02-13T00:34:03.872Z,7.00
2023-02-13T00:35:03.887Z,6.90
2023-02-13T00:36:03.839Z,6.90
2023-02-13T00:37:03.874Z,7.10
2023-02-13T00:38:03.822Z,6.90
2023-02-13T00:39:03.791Z,7.00
2023-02-13T00:40:03.805Z,6.80
2023-02-13T00:41:03.768Z,6.60
2023-02-13T00:42:03.799Z,6.50
2023-02-13T00:43:03.744Z,6.90
2023-02-13T00:44:03.782Z,7.00
2023-02-13T00:45:03.732Z,6.70
2023-02-13T00:46:03.792Z,6.50
2023-02-13T00:47:03.720Z,6.90
2023-02-13T00:48:03.708Z,6.40
2023-02-13T00:49:03.722Z,6.90
2023-02-13T00:50:03.659Z,6.40
2023-02-13T00:51:03.668Z,6.90
2023-02-13T00:52:03.663Z,6.90
2023-02-13T00:53:03.655Z,6.90
2023-02-13T00:54:03.658Z,7.00
2023-02-13T00:55:03.640Z,6.40
2023-02-13T00:56:03.591Z,5.80
2023-02-13T00:57:03.603Z,6.00
2023-02-13T00:58:03.591Z,6.40
2023-02-13T00:59:03.561Z,6.20
2023-02-13T01:00:03.589Z,6.10
2023-02-13T01:01:03.531Z,6.00
2023-02-13T01:02:03.542Z,6.50
2023-02-13T01:03:03.520Z,6.10
2023-02-13T01:04:03.579Z,5.80
2023-02-13T01:05:03.519Z,6.40
2023-02-13T01:06:03.477Z,6.10
2023-02-13T01:07:03.511Z,5.60
2023-02-13T01:08:03.477Z,6.40
2023-02-13T01:09:03.465Z,6.20
2023-02-13T01:10:03.448Z,6.20
2023-02-13T01:11:03.424Z,6.30
2023-02-13T01:12:03.451Z,6.40
2023-02-13T01:13:03.395Z,6.30
2023-02-13T01:14:03.401Z,6.40
2023-02-13T01:15:03.421Z,5.90
2023-02-13T01:16:03.415Z,5.70
2023-02-13T01:17:03.364Z,6.10
2023-02-13T01:18:03.373Z,5.50
2023-02-13T01:19:03.355Z,6.10
2023-02-13T01:20:03.312Z,6.30
2023-02-13T01:21:03.355Z,5.80
2023-02-13T01:22:03.308Z,5.50
2023-02-13T01:23:03.286Z,5.40
2023-02-13T01:24:03.255Z,5.30
2023-02-13T01:25:03.282Z,5.20
2023-02-13T01:26:03.270Z,5.60
2023-02-13T01:27:03.243Z,5.70
2023-02-13T01:28:03.247Z,6.30
2023-02-13T01:29:03.227Z,5.50
2023-02-13T01:30:03.209Z,5.50
2023-02-13T01:31:03.598Z,5.90
2023-02-13T01:32:03.185Z,5.20
2023-02-13T01:33:03.159Z,5.40
2023-02-13T01:34:03.166Z,5.40
2023-02-13T01:35:03.173Z,5.80
2023-02-13T01:36:03.116Z,5.40
2023-02-13T01:37:03.110Z,5.50
2023-02-13T01:38:03.113Z,6.00
2023-02-13T01:39:03.129Z,6.90
2023-02-13T01:40:03.093Z,5.80
2023-02-13T01:41:03.076Z,5.50
2023-02-13T01:42:03.072Z,6.70
2023-02-13T01:43:03.043Z,6.30
2023-02-13T01:44:03.093Z,6.20
2023-02-13T01:45:03.053Z,6.50
2023-02-13T01:46:03.021Z,6.60
2023-02-13T01:47:03.000Z,6.20
2023-02-13T01:48:04.168Z,6.60
2023-02-13T01:49:02.998Z,5.80
2023-02-13T01:50:02.956Z,6.50
2023-02-13T01:51:02.960Z,6.10
2023-02-13T01:52:02.922Z,6.10
2023-02-13T01:53:02.903Z,5.90
2023-02-13T01:54:02.929Z,6.10
2023-02-13T01:55:02.936Z,6.30
2023-02-13T01:56:02.895Z,6.60
2023-02-13T01:57:02.876Z,6.50
2023-02-13T01:58:02.880Z,5.90
2023-02-13T01:59:02.857Z,6.30
2023-02-13T02:00:02.832Z,6.00
2023-02-13T02:01:02.840Z,6.20
2023-02-13T02:02:02.942Z,6.10
2023-02-13T02:03:02.786Z,6.60
2023-02-13T02:04:02.777Z,5.80
2023-02-13T02:05:02.772Z,6.90
2023-02-13T02:06:02.767Z,6.90
2023-02-13T02:07:02.778Z,6.70
2023-02-13T02:08:02.758Z,6.80
2023-02-13T02:09:02.727Z,6.90
2023-02-13T02:10:02.750Z,6.20
2023-02-13T02:11:02.687Z,6.80
2023-02-13T02:12:02.693Z,6.90
2023-02-13T02:13:02.756Z,6.40
2023-02-13T02:14:02.671Z,5.80
2023-02-13T02:15:02.656Z,6.40
2023-02-13T02:16:02.692Z,6.60
2023-02-13T02:17:02.652Z,6.70
2023-02-13T02:18:02.627Z,6.60
2023-02-13T02:19:02.656Z,6.30
2023-02-13T02:20:02.620Z,6.50
2023-02-13T02:21:02.605Z,6.10
2023-02-13T02:22:02.563Z,6.60
2023-02-13T02:23:02.572Z,6.40
2023-02-13T02:24:02.586Z,7.10
2023-02-13T02:25:02.528Z,6.60
2023-02-13T02:26:02.528Z,7.20
2023-02-13T02:27:02.544Z,7.40
2023-02-13T02:28:02.546Z,8.30
2023-02-13T02:29:02.514Z,8.50
2023-02-13T02:30:02.489Z,8.90
2023-02-13T02:31:02.611Z,8.90
2023-02-13T02:32:02.451Z,9.30
2023-02-13T02:33:02.465Z,9.10
2023-02-13T02:34:02.436Z,9.50
2023-02-13T02:35:02.431Z,9.40
2023-02-13T02:36:02.444Z,9.30
2023-02-13T02:37:02.514Z,9.20
2023-02-13T02:38:02.404Z,9.90
2023-02-13T02:39:02.409Z,9.40
2023-02-13T02:40:02.408Z,8.80
2023-02-13T02:41:02.427Z,9.90
2023-02-13T02:42:02.332Z,8.60
2023-02-13T02:43:02.312Z,8.60
2023-02-13T02:44:02.335Z,9.40
2023-02-13T02:45:02.298Z,9.30
2023-02-13T02:46:02.324Z,8.80
2023-02-13T02:47:02.272Z,9.40
2023-02-13T02:48:02.297Z,9.10
2023-02-13T02:49:02.254Z,9.60
2023-02-13T02:50:02.315Z,9.50
2023-02-13T02:51:02.277Z,9.00
2023-02-13T02:52:02.250Z,8.90
2023-02-13T02:53:02.223Z,8.90
2023-02-13T02:54:02.180Z,9.30
2023-02-13T02:55:02.176Z,9.10
2023-02-13T02:56:02.232Z,9.10
2023-02-13T02:57:02.169Z,9.50
2023-02-13T02:58:02.148Z,10.30
2023-02-13T02:59:02.137Z,9.10
2023-02-13T03:00:02.101Z,10.40
2023-02-13T03:01:02.117Z,10.10
2023-02-13T03:02:02.133Z,9.40
2023-02-13T03:03:02.102Z,10.20
2023-02-13T03:04:02.143Z,9.80
2023-02-13T03:05:02.057Z,9.70
2023-02-13T03:06:02.067Z,9.80
2023-02-13T03:07:02.054Z,10.40
2023-02-13T03:08:02.025Z,10.10
2023-02-13T03:09:02.020Z,9.90
2023-02-13T03:10:02.021Z,11.20
2023-02-13T03:11:02.024Z,10.00
2023-02-13T03:12:01.970Z,10.70
2023-02-13T03:13:01.941Z,9.90
2023-02-13T03:14:01.966Z,10.30
2023-02-13T03:15:01.948Z,10.30
2023-02-13T03:16:01.965Z,10.00
2023-02-13T03:17:01.936Z,9.70
2023-02-13T03:18:01.914Z,10.00
2023-02-13T03:19:01.906Z,9.40
2023-02-13T03:20:01.903Z,8.90
2023-02-13T03:21:01.907Z,9.40
2023-02-13T03:22:01.868Z,8.70
2023-02-13T03:23:01.838Z,8.60
2023-02-13T03:24:01.828Z,8.40
2023-02-13T03:25:01.843Z,8.40
2023-02-13T03:26:01.807Z,8.40
2023-02-13T03:27:01.787Z,8.40
2023-02-13T03:28:01.831Z,8.10
2023-02-13T03:29:01.759Z,7.20
2023-02-13T03:30:01.787Z,6.90
2023-02-13T03:31:01.788Z,7.40
2023-02-13T03:32:01.736Z,7.90
2023-02-13T03:33:01.762Z,7.50
2023-02-13T03:34:01.772Z,8.20
2023-02-13T03:35:01.685Z,7.90
2023-02-13T03:36:01.693Z,7.90
2023-02-13T03:37:01.660Z,7.70
2023-02-13T03:38:01.699Z,8.10
2023-02-13T03:39:01.702Z,8.10
2023-02-13T03:40:01.654Z,7.90
2023-02-13T03:41:01.624Z,7.70
2023-02-13T03:42:01.625Z,8.10
2023-02-13T03:43:01.593Z,7.90
2023-02-13T03:44:01.613Z,8.40
2023-02-13T03:45:01.606Z,8.50
2023-02-13T03:46:01.598Z,7.90
2023-02-13T03:47:01.538Z,7.90
2023-02-13T03:48:01.565Z,8.90
2023-02-13T03:49:01.553Z,8.50
2023-02-13T03:50:01.534Z,8.40
2023-02-13T03:51:01.504Z,8.80
2023-02-13T03:52:01.517Z,8.60
2023-02-13T03:53:01.479Z,8.20
2023-02-13T03:54:01.483Z,8.00
2023-02-13T03:55:01.464Z,8.00
2023-02-13T03:56:01.444Z,7.90
2023-02-13T03:57:01.461Z,7.70
2023-02-13T03:58:01.415Z,8.10
2023-02-13T03:59:01.433Z,7.50
2023-02-13T04:00:01.405Z,7.40
2023-02-13T04:01:01.408Z,7.70
2023-02-13T04:02:01.464Z,7.20
2023-02-13T04:03:01.391Z,7.50
2023-02-13T04:04:01.386Z,7.50
2023-02-13T04:05:01.386Z,7.40
2023-02-13T04:06:01.335Z,7.70
2023-02-13T04:07:01.318Z,7.40
2023-02-13T04:08:01.307Z,8.10
2023-02-13T04:09:01.288Z,6.90
2023-02-13T04:10:01.278Z,7.40
2023-02-13T04:11:01.296Z,7.80
2023-02-13T04:12:01.244Z,7.40
2023-02-13T04:13:01.238Z,7.90
2023-02-13T04:14:01.231Z,7.80
2023-02-13T04:15:01.236Z,7.20
2023-02-13T04:16:01.186Z,7.00
2023-02-13T04:17:01.264Z,7.10
2023-02-13T04:18:01.199Z,6.90
2023-02-13T04:19:01.155Z,6.60
2023-02-13T04:20:01.146Z,6.90
2023-02-13T04:21:01.137Z,6.70
2023-02-13T04:22:01.143Z,6.70
2023-02-13T04:23:01.160Z,7.00
2023-02-13T04:24:01.111Z,7.10
2023-02-13T04:25:01.129Z,7.20
2023-02-13T04:26:01.088Z,7.00
2023-02-13T04:27:01.118Z,7.60
2023-02-13T04:28:01.125Z,7.70
2023-02-13T04:29:01.054Z,7.20
2023-02-13T04:30:01.035Z,7.60
2023-02-13T04:31:01.628Z,7.40
2023-02-13T04:32:01.059Z,6.90
2023-02-13T04:33:01.049Z,7.00
2023-02-13T04:34:00.983Z,7.30
2023-02-13T04:35:00.977Z,6.40
2023-02-13T04:36:00.973Z,6.00
2023-02-13T04:37:00.967Z,6.90
2023-02-13T04:38:00.976Z,6.60
2023-02-13T04:39:00.937Z,7.10
2023-02-13T04:40:00.912Z,6.40
2023-02-13T04:41:00.928Z,6.90
2023-02-13T04:42:00.903Z,7.00
2023-02-13T04:43:00.924Z,6.90
2023-02-13T04:44:00.864Z,7.10
2023-02-13T04:45:00.886Z,7.10
2023-02-13T04:46:00.956Z,6.80
2023-02-13T04:47:00.841Z,6.90
2023-02-13T04:48:00.834Z,6.60
2023-02-13T04:49:00.831Z,6.50
2023-02-13T04:50:00.800Z,6.80
2023-02-13T04:51:00.838Z,6.30
2023-02-13T04:52:00.785Z,6.40
2023-02-13T04:53:00.761Z,6.10
2023-02-13T04:54:00.782Z,6.70
2023-02-13T04:55:00.765Z,6.60
2023-02-13T04:56:00.738Z,6.80
2023-02-13T04:57:00.731Z,6.70
2023-02-13T04:58:00.708Z,7.30
2023-02-13T04:59:00.690Z,6.70
2023-02-13T05:00:00.675Z,6.40
2023-02-13T05:01:00.769Z,6.70
2023-02-13T05:02:00.683Z,7.20
2023-02-13T05:03:00.654Z,6.90
2023-02-13T05:04:00.612Z,6.80
2023-02-13T05:05:00.603Z,7.10
2023-02-13T05:06:00.648Z,6.50
2023-02-13T05:07:00.624Z,6.40
2023-02-13T05:08:00.604Z,6.70
2023-02-13T05:09:00.560Z,6.50
2023-02-13T05:10:00.560Z,6.40
2023-02-13T05:11:00.690Z,6.30
2023-02-13T05:12:00.520Z,6.40
2023-02-13T05:13:00.568Z,6.30
2023-02-13T05:14:00.506Z,6.20
2023-02-13T05:15:00.483Z,6.60
2023-02-13T05:16:00.547Z,6.20
2023-02-13T05:17:00.541Z,6.10
2023-02-13T05:18:00.455Z,6.50
2023-02-13T05:19:00.445Z,6.40
2023-02-13T05:20:00.446Z,6.30
2023-02-13T05:21:00.464Z,6.10
2023-02-13T05:22:00.475Z,6.60
2023-02-13T05:23:00.405Z,6.50
2023-02-13T05:24:00.375Z,6.30
2023-02-13T05:25:00.392Z,6.80
2023-02-13T05:26:00.373Z,6.20
2023-02-13T05:27:00.360Z,6.70
2023-02-13T05:28:00.485Z,6.50
2023-02-13T05:29:00.343Z,6.90
2023-02-13T05:30:00.341Z,6.20
2023-02-13T05:31:00.814Z,6.30
2023-02-13T05:32:00.555Z,6.50
2023-02-13T05:33:00.310Z,6.50
2023-02-13T05:34:00.285Z,6.10
2023-02-13T05:35:02.056Z,6.80
2023-02-13T05:36:00.253Z,6.50
2023-02-13T05:37:00.249Z,6.70
2023-02-13T05:38:00.274Z,6.90
2023-02-13T05:39:00.233Z,7.20
2023-02-13T05:40:00.220Z,7.00
2023-02-13T05:41:00.196Z,6.90
2023-02-13T05:42:00.207Z,6.60
2023-02-13T05:43:00.205Z,6.10
2023-02-13T05:44:00.190Z,6.60
2023-02-13T05:45:00.199Z,6.70
2023-02-13T05:46:00.180Z,6.30
2023-02-13T05:47:00.123Z,6.50
2023-02-13T05:48:00.126Z,6.40
2023-02-13T05:49:00.155Z,6.50
2023-02-13T05:50:00.187Z,6.30
2023-02-13T05:51:00.104Z,6.80
2023-02-13T05:52:00.068Z,6.10
2023-02-13T05:53:00.051Z,6.40
2023-02-13T05:54:00.063Z,6.00
2023-02-13T05:55:00.058Z,6.40
2023-02-13T05:56:00.029Z,6.30
2023-02-13T05:57:00.018Z,6.70
2023-02-13T05:58:00.074Z,6.20
2023-02-13T05:58:59.994Z,6.20
2023-02-13T05:59:59.963Z,6.10
2023-02-13T06:01:00.248Z,6.60
2023-02-13T06:01:59.934Z,6.60
2023-02-13T06:03:00.023Z,6.60
2023-02-13T06:04:02.637Z,6.80
2023-02-13T06:04:59.925Z,6.80
2023-02-13T06:05:59.917Z,6.60
2023-02-13T06:06:59.884Z,7.30
2023-02-13T06:07:59.867Z,7.20
2023-02-13T06:08:59.865Z,6.60
2023-02-13T06:09:59.891Z,7.00
2023-02-13T06:11:00.200Z,7.10
2023-02-13T06:11:59.857Z,7.40
2023-02-13T06:12:59.842Z,7.40
2023-02-13T06:13:59.807Z,7.60
2023-02-13T06:14:59.764Z,7.20
2023-02-13T06:15:59.846Z,7.50
2023-02-13T06:16:59.750Z,7.10
2023-02-13T06:17:59.756Z,6.70
2023-02-13T06:18:59.783Z,7.40
2023-02-13T06:19:59.727Z,6.60
2023-02-13T06:20:59.890Z,6.80
2023-02-13T06:21:59.727Z,6.30
2023-02-13T06:22:59.711Z,7.10
2023-02-13T06:23:59.665Z,7.10
2023-02-13T06:24:59.690Z,7.00
2023-02-13T06:25:59.662Z,6.60
2023-02-13T06:26:59.655Z,6.30
2023-02-13T06:27:59.799Z,7.20
2023-02-13T06:28:59.645Z,7.10
2023-02-13T06:29:59.599Z,6.90
2023-02-13T06:31:00.155Z,7.40
2023-02-13T06:31:59.668Z,6.90
2023-02-13T06:32:59.565Z,7.30
2023-02-13T06:33:59.583Z,7.80
2023-02-13T06:34:59.562Z,7.50
2023-02-13T06:35:59.560Z,7.50
2023-02-13T06:36:59.538Z,7.70
2023-02-13T06:37:59.542Z,7.70
2023-02-13T06:38:59.507Z,7.40
2023-02-13T06:39:59.636Z,6.90
2023-02-13T06:40:59.886Z,6.40
2023-02-13T06:41:59.509Z,6.90
2023-02-13T06:42:59.453Z,7.10
2023-02-13T06:43:59.443Z,6.90
2023-02-13T06:44:59.451Z,7.40
2023-02-13T06:45:59.458Z,7.20
2023-02-13T06:46:59.569Z,6.90
2023-02-13T06:47:59.513Z,6.80
2023-02-13T06:48:59.465Z,7.10
2023-02-13T06:49:59.372Z,6.70
2023-02-13T06:50:59.709Z,6.90
2023-02-13T06:51:59.342Z,7.10
2023-02-13T06:52:59.341Z,5.80
2023-02-13T06:53:59.370Z,6.20
2023-02-13T06:54:59.304Z,6.40
2023-02-13T06:55:59.320Z,6.50
2023-02-13T06:56:59.317Z,6.70
2023-02-13T06:57:59.283Z,5.90
2023-02-13T06:58:59.283Z,5.50
2023-02-13T06:59:59.258Z,5.10
2023-02-13T07:00:59.653Z,5.20
2023-02-13T07:01:59.241Z,5.60
2023-02-13T07:02:59.321Z,5.30
2023-02-13T07:03:59.237Z,6.30
2023-02-13T07:04:59.472Z,6.00
2023-02-13T07:05:59.218Z,6.70
2023-02-13T07:06:59.181Z,7.20
2023-02-13T07:07:59.180Z,7.10
2023-02-13T07:08:59.137Z,7.40
2023-02-13T07:09:59.156Z,7.50
2023-02-13T07:10:59.493Z,7.10
2023-02-13T07:11:59.141Z,7.40
2023-02-13T07:13:05.773Z,6.00
2023-02-13T07:14:00.115Z,6.30
2023-02-13T07:14:59.128Z,6.00
2023-02-13T07:15:59.133Z,5.70
2023-02-13T07:16:59.066Z,5.90
2023-02-13T07:17:59.042Z,5.70
2023-02-13T07:18:59.049Z,5.80
2023-02-13T07:19:59.042Z,6.20
2023-02-13T07:20:59.196Z,5.50
2023-02-13T07:21:59.027Z,5.60
2023-02-13T07:22:58.995Z,5.50
2023-02-13T07:23:58.988Z,5.60
2023-02-13T07:24:59.021Z,5.40
2023-02-13T07:25:58.984Z,5.20
2023-02-13T07:26:58.947Z,5.50
2023-02-13T07:27:58.922Z,4.70
2023-02-13T07:29:10.455Z,5.10
2023-02-13T07:29:59.926Z,4.60
2023-02-13T07:30:59.344Z,5.10
2023-02-13T07:31:58.961Z,5.00
2023-02-13T07:32:58.893Z,4.70
2023-02-13T07:33:58.857Z,4.80
2023-02-13T07:35:02.451Z,4.80
2023-02-13T07:35:58.912Z,4.50
2023-02-13T07:36:58.898Z,4.90
2023-02-13T07:37:58.828Z,5.10
2023-02-13T07:38:58.818Z,5.00
2023-02-13T07:39:58.798Z,5.30
2023-02-13T07:40:59.235Z,5.00
2023-02-13T07:41:58.816Z,5.00
2023-02-13T07:42:58.775Z,5.70
2023-02-13T07:43:58.748Z,5.70
2023-02-13T07:44:58.740Z,5.70
2023-02-13T07:45:59.071Z,5.70
2023-02-13T07:46:58.903Z,6.00
2023-02-13T07:47:58.723Z,6.00
2023-02-13T07:48:58.679Z,5.80
2023-02-13T07:49:58.686Z,6.30
2023-02-13T07:50:58.999Z,6.10
2023-02-13T07:51:58.715Z,6.00
2023-02-13T07:52:58.686Z,6.30
2023-02-13T07:53:58.666Z,5.90
2023-02-13T07:54:58.639Z,6.10
2023-02-13T07:55:58.836Z,6.40
2023-02-13T07:56:58.626Z,6.10
2023-02-13T07:57:58.646Z,5.80
2023-02-13T07:58:58.614Z,6.00
2023-02-13T07:59:58.566Z,5.90
2023-02-13T08:00:58.543Z,6.30
2023-02-13T08:01:58.660Z,5.50
2023-02-13T08:02:58.531Z,5.70
2023-02-13T08:03:58.549Z,5.90
2023-02-13T08:04:58.645Z,5.80
2023-02-13T08:05:58.913Z,5.90
2023-02-13T08:06:58.509Z,5.80
2023-02-13T08:07:58.529Z,5.50
2023-02-13T08:08:58.462Z,5.50
2023-02-13T08:09:58.446Z,6.10
2023-02-13T08:10:58.426Z,5.70
2023-02-13T08:11:58.460Z,6.10
2023-02-13T08:12:58.438Z,6.50
2023-02-13T08:13:58.383Z,6.10
2023-02-13T08:14:58.418Z,6.30
2023-02-13T08:15:58.680Z,6.40
2023-02-13T08:16:58.353Z,5.70
2023-02-13T08:17:58.373Z,6.20
2023-02-13T08:18:58.337Z,6.10
2023-02-13T08:19:58.306Z,5.90
2023-02-13T08:20:58.359Z,5.90
2023-02-13T08:21:58.313Z,5.50
2023-02-13T08:22:58.274Z,6.00
2023-02-13T08:23:58.321Z,5.10
2023-02-13T08:24:58.258Z,5.00
2023-02-13T08:25:58.515Z,5.50
2023-02-13T08:26:58.264Z,5.10
2023-02-13T08:27:58.228Z,5.00
2023-02-13T08:28:58.219Z,5.00
2023-02-13T08:29:58.288Z,4.60
2023-02-13T08:30:58.244Z,5.30
2023-02-13T08:31:58.196Z,4.90
2023-02-13T08:32:58.178Z,4.70
2023-02-13T08:33:58.153Z,4.70
2023-02-13T08:34:58.140Z,4.80
2023-02-13T08:35:58.429Z,4.60
2023-02-13T08:36:58.119Z,4.80
2023-02-13T08:37:58.104Z,4.50
2023-02-13T08:38:58.116Z,4.90
2023-02-13T08:39:58.080Z,5.30
2023-02-13T08:40:58.348Z,5.00
2023-02-13T08:41:58.058Z,5.20
2023-02-13T08:42:58.081Z,4.70
2023-02-13T08:43:58.042Z,5.00
2023-02-13T08:44:58.876Z,4.90
2023-02-13T08:45:58.393Z,5.10
2023-02-13T08:46:58.009Z,5.20
2023-02-13T08:47:57.969Z,5.10
2023-02-13T08:48:58.023Z,4.60
2023-02-13T08:49:57.961Z,4.80
2023-02-13T08:50:57.985Z,5.00
2023-02-13T08:51:57.986Z,5.10
2023-02-13T08:52:57.919Z,4.90
2023-02-13T08:53:57.916Z,6.00
2023-02-13T08:54:57.891Z,5.20
2023-02-13T08:55:58.364Z,5.20
2023-02-13T08:56:58.711Z,5.00
2023-02-13T08:57:57.903Z,5.30
2023-02-13T08:58:57.864Z,5.00
2023-02-13T08:59:57.845Z,5.30
2023-02-13T09:00:57.882Z,5.20
2023-02-13T09:01:57.847Z,5.70
2023-02-13T09:02:57.864Z,5.00
2023-02-13T09:03:57.837Z,5.30
2023-02-13T09:04:57.773Z,5.40
2023-02-13T09:05:58.094Z,5.30
2023-02-13T09:06:57.765Z,4.50
2023-02-13T09:07:57.828Z,4.50
2023-02-13T09:08:57.779Z,4.60
2023-02-13T09:09:57.703Z,4.90
2023-02-13T09:10:57.727Z,5.10
2023-02-13T09:11:57.698Z,4.70
2023-02-13T09:12:57.706Z,4.70
2023-02-13T09:13:57.685Z,4.80
2023-02-13T09:14:57.688Z,4.80
2023-02-13T09:15:57.955Z,4.70
2023-02-13T09:16:57.685Z,5.00
2023-02-13T09:17:57.652Z,5.00
2023-02-13T09:18:57.625Z,4.80
2023-02-13T09:19:57.621Z,4.70
2023-02-13T09:20:57.629Z,5.20
2023-02-13T09:21:57.622Z,5.00
2023-02-13T09:22:57.549Z,4.40
2023-02-13T09:23:57.558Z,4.30
2023-02-13T09:24:57.528Z,4.20
2023-02-13T09:25:57.901Z,4.60
2023-02-13T09:26:57.537Z,4.80
2023-02-13T09:27:57.548Z,4.70
2023-02-13T09:28:57.518Z,4.60
2023-02-13T09:29:57.515Z,4.40
2023-02-13T09:30:57.576Z,4.20
2023-02-13T09:31:57.670Z,3.90
2023-02-13T09:32:57.447Z,4.40
2023-02-13T09:33:57.480Z,3.90
2023-02-13T09:34:57.435Z,3.90
2023-02-13T09:35:57.730Z,4.50
2023-02-13T09:36:57.418Z,3.90
2023-02-13T09:37:57.393Z,4.20
2023-02-13T09:38:57.383Z,4.10
2023-02-13T09:39:57.388Z,4.30
2023-02-13T09:40:57.365Z,4.50
2023-02-13T09:41:57.595Z,3.60
2023-02-13T09:42:57.379Z,4.00
2023-02-13T09:43:57.323Z,4.60
2023-02-13T09:44:57.296Z,4.10
2023-02-13T09:45:57.737Z,4.40
2023-02-13T09:46:57.294Z,4.40
2023-02-13T09:47:57.266Z,4.30
2023-02-13T09:48:57.288Z,4.40
2023-02-13T09:49:57.250Z,3.90
2023-02-13T09:50:57.264Z,4.50
2023-02-13T09:51:57.236Z,4.60
2023-02-13T09:52:57.218Z,4.80
2023-02-13T09:53:57.225Z,4.50
2023-02-13T09:54:57.173Z,4.20
2023-02-13T09:55:57.578Z,4.30
2023-02-13T09:56:57.178Z,4.50
2023-02-13T09:57:57.139Z,4.10
2023-02-13T09:58:57.162Z,4.40
2023-02-13T09:59:57.176Z,4.40
2023-02-13T10:00:57.106Z,4.40
2023-02-13T10:01:57.219Z,4.50
2023-02-13T10:02:57.101Z,4.30
2023-02-13T10:03:57.121Z,4.70
2023-02-13T10:04:57.193Z,4.60
2023-02-13T10:05:57.465Z,4.50
2023-02-13T10:06:57.045Z,4.50
2023-02-13T10:07:57.040Z,4.50
2023-02-13T10:08:57.009Z,4.50
2023-02-13T10:09:57.042Z,4.30
2023-02-13T10:10:57.017Z,4.40
2023-02-13T10:11:56.993Z,4.20
2023-02-13T10:12:56.976Z,4.50
2023-02-13T10:13:56.940Z,4.40
2023-02-13T10:14:57.028Z,4.40
2023-02-13T10:15:57.267Z,4.40
2023-02-13T10:16:56.945Z,4.90
2023-02-13T10:17:56.915Z,4.60
2023-02-13T10:18:56.895Z,4.50
2023-02-13T10:19:56.922Z,4.10
2023-02-13T10:20:56.925Z,4.90
2023-02-13T10:21:56.885Z,3.80
2023-02-13T10:22:56.891Z,4.60
2023-02-13T10:23:56.882Z,4.60
2023-02-13T10:24:56.869Z,4.40
2023-02-13T10:25:57.474Z,4.70
2023-02-13T10:26:56.814Z,4.60
2023-02-13T10:27:56.784Z,4.00
2023-02-13T10:28:56.809Z,4.10
2023-02-13T10:29:56.791Z,4.30
2023-02-13T10:30:56.891Z,4.40
2023-02-13T10:31:56.851Z,4.70
2023-02-13T10:32:56.745Z,4.60
2023-02-13T10:33:56.759Z,4.10
2023-02-13T10:34:56.739Z,4.40
2023-02-13T10:35:57.140Z,4.90
2023-02-13T10:36:56.713Z,4.70
2023-02-13T10:37:56.683Z,4.50
2023-02-13T10:38:56.675Z,5.00
2023-02-13T10:39:56.677Z,4.60
2023-02-13T10:40:56.652Z,4.30
2023-02-13T10:41:56.685Z,4.60
2023-02-13T10:42:56.663Z,4.60
2023-02-13T10:43:56.638Z,4.10
2023-02-13T10:44:56.618Z,4.50
2023-02-13T10:45:56.860Z,4.40
2023-02-13T10:46:56.694Z,4.30
2023-02-13T10:47:56.618Z,4.20
2023-02-13T10:48:56.558Z,4.40
2023-02-13T10:49:56.562Z,4.00
2023-02-13T10:50:56.547Z,4.60
2023-02-13T10:51:57.508Z,4.50
2023-02-13T10:52:56.560Z,4.20
2023-02-13T10:53:56.531Z,4.30
2023-02-13T10:54:56.516Z,4.20
2023-02-13T10:55:56.851Z,4.20
2023-02-13T10:56:56.488Z,4.60
2023-02-13T10:57:56.451Z,4.40
2023-02-13T10:58:56.518Z,4.70
2023-02-13T10:59:56.443Z,4.60
2023-02-13T11:00:56.424Z,4.50
2023-02-13T11:01:56.521Z,5.00
2023-02-13T11:02:56.380Z,5.40
2023-02-13T11:03:56.463Z,4.50
2023-02-13T11:04:56.383Z,5.10
2023-02-13T11:05:56.943Z,5.20
2023-02-13T11:06:56.354Z,4.60
2023-02-13T11:07:56.337Z,4.60
2023-02-13T11:08:56.301Z,4.80
2023-02-13T11:09:56.335Z,4.90
2023-02-13T11:10:56.306Z,5.10
2023-02-13T11:11:56.305Z,4.80
2023-02-13T11:12:56.295Z,4.70
2023-02-13T11:13:56.274Z,4.70
2023-02-13T11:14:56.247Z,4.40
2023-02-13T11:15:56.754Z,5.00
2023-02-13T11:16:56.238Z,4.50
2023-02-13T11:17:56.262Z,4.70
2023-02-13T11:18:56.271Z,4.80
2023-02-13T11:19:56.174Z,4.50
2023-02-13T11:20:56.163Z,5.10
2023-02-13T11:21:56.155Z,5.10
2023-02-13T11:22:56.142Z,5.10
2023-02-13T11:23:56.185Z,5.10
2023-02-13T11:24:56.157Z,5.30
2023-02-13T11:25:56.519Z,5.20
2023-02-13T11:26:56.123Z,5.00
2023-02-13T11:27:56.093Z,5.10
2023-02-13T11:28:56.118Z,5.10
2023-02-13T11:29:56.088Z,4.60
2023-02-13T11:30:56.239Z,4.80
2023-02-13T11:31:56.168Z,4.90
2023-02-13T11:32:56.049Z,4.50
2023-02-13T11:33:58.590Z,4.70
2023-02-13T11:34:56.020Z,5.50
2023-02-13T11:35:56.313Z,5.00
2023-02-13T11:36:56.027Z,4.80
2023-02-13T11:37:56.028Z,5.30
2023-02-13T11:38:55.956Z,5.10
2023-02-13T11:39:55.969Z,5.00
2023-02-13T11:40:55.949Z,4.80
2023-02-13T11:41:55.991Z,4.90
2023-02-13T11:42:55.918Z,4.60
2023-02-13T11:43:55.914Z,5.10
2023-02-13T11:44:55.919Z,5.50
2023-02-13T11:45:55.956Z,4.70
2023-02-13T11:46:55.980Z,5.10
2023-02-13T11:47:55.920Z,5.50
2023-02-13T11:48:55.841Z,5.30
2023-02-13T11:49:55.858Z,5.10
2023-02-13T11:50:55.825Z,5.30
2023-02-13T11:51:55.852Z,5.30
2023-02-13T11:52:55.814Z,5.40
2023-02-13T11:53:55.821Z,4.60
2023-02-13T11:54:55.782Z,5.00
2023-02-13T11:55:56.260Z,4.70
2023-02-13T11:57:10.587Z,4.90
2023-02-13T11:57:56.756Z,4.70
2023-02-13T11:58:55.843Z,5.60
2023-02-13T11:59:55.760Z,5.20
2023-02-13T12:00:55.781Z,5.50
2023-02-13T12:01:55.700Z,5.10
2023-02-13T12:02:55.901Z,5.00
2023-02-13T12:03:55.757Z,5.20
2023-02-13T12:04:55.690Z,4.70
2023-02-13T12:05:56.127Z,4.80
2023-02-13T12:06:55.654Z,5.50
2023-02-13T12:07:55.631Z,5.30
2023-02-13T12:08:55.643Z,5.30
2023-02-13T12:09:55.646Z,5.40
2023-02-13T12:10:55.731Z,5.90
2023-02-13T12:11:55.635Z,4.70
2023-02-13T12:12:55.624Z,4.70
2023-02-13T12:13:55.614Z,5.10
2023-02-13T12:14:55.555Z,5.30
2023-02-13T12:15:55.781Z,4.80
2023-02-13T12:16:55.634Z,4.90
2023-02-13T12:17:55.549Z,4.40
2023-02-13T12:18:55.526Z,4.90
2023-02-13T12:19:55.494Z,4.40
2023-02-13T12:20:55.964Z,4.50
2023-02-13T12:21:55.724Z,4.70
2023-02-13T12:22:55.515Z,4.60
2023-02-13T12:23:55.473Z,4.60
2023-02-13T12:24:55.462Z,4.90
2023-02-13T12:25:55.455Z,4.60
2023-02-13T12:26:55.418Z,4.40
2023-02-13T12:27:55.432Z,4.40
2023-02-13T12:28:55.557Z,4.70
2023-02-13T12:29:55.416Z,3.90
2023-02-13T12:30:55.451Z,4.30
2023-02-13T12:31:55.442Z,4.60
2023-02-13T12:32:55.334Z,4.20
2023-02-13T12:33:55.359Z,3.80
2023-02-13T12:34:55.330Z,4.30
2023-02-13T12:35:55.319Z,4.30
2023-02-13T12:36:55.287Z,4.20
2023-02-13T12:37:55.341Z,4.30
2023-02-13T12:38:55.257Z,4.20
2023-02-13T12:39:55.260Z,4.20
2023-02-13T12:40:55.312Z,4.60
2023-02-13T12:41:55.291Z,4.30
2023-02-13T12:42:55.220Z,4.20
2023-02-13T12:43:55.276Z,4.20
2023-02-13T12:44:55.241Z,3.90
2023-02-13T12:45:55.205Z,4.00
2023-02-13T12:46:55.202Z,4.30
2023-02-13T12:47:55.312Z,4.00
2023-02-13T12:48:55.173Z,3.90
2023-02-13T12:49:55.173Z,3.80
2023-02-13T12:50:55.266Z,4.30
2023-02-13T12:51:55.120Z,3.90
2023-02-13T12:52:55.123Z,3.80
2023-02-13T12:53:55.152Z,4.50
2023-02-13T12:54:55.102Z,4.60
2023-02-13T12:59:12.992Z,4.20
2023-02-13T13:00:13.039Z,4.30
2023-02-13T13:01:13.004Z,4.90
2023-02-13T13:02:13.017Z,4.00
2023-02-13T13:03:12.923Z,3.90
2023-02-13T13:04:12.933Z,4.40
2023-02-13T13:05:13.796Z,3.70
2023-02-13T13:06:12.933Z,4.30
2023-02-13T13:07:12.867Z,4.00
2023-02-13T13:08:12.821Z,4.00
2023-02-13T13:09:12.873Z,4.10
2023-02-13T13:10:12.814Z,4.60
2023-02-13T13:11:12.782Z,4.40
2023-02-13T13:12:12.816Z,4.40
2023-02-13T13:13:12.851Z,3.90
2023-02-13T13:14:12.772Z,4.10
2023-02-13T13:15:12.788Z,3.90
2023-02-13T13:16:12.868Z,3.70
2023-02-13T13:17:12.775Z,4.10
2023-02-13T13:18:12.735Z,3.90
2023-02-13T13:19:12.756Z,4.20
2023-02-13T13:20:12.707Z,4.20
2023-02-13T13:21:12.686Z,4.00